Time;durP1;ratioP1;P1;durP2;ratioP2;P2;SDS_P1;SDS_P2;PMS_P1;PMS_P2;Temp;Humidity;BMP_temperature;BMP_pressure;BME280_temperature;BME280_humidity;BME280_pressure;Samples;Min_cycle;Max_cycle;Signal;HPM_P1;HPM_P2
2023/09/12 00:02:18;;;;;;;17.40;10.05;;;;;;;19.60;100.00;100000.41;5013903;28;20042;-71
2023/09/12 00:04:50;;;;;;;21.08;10.00;;;;;;;19.44;100.00;99997.38;5023497;28;20458;-71
2023/09/12 00:07:18;;;;;;;18.30;10.35;;;;;;;19.41;100.00;100006.56;5029387;28;20056;-71
2023/09/12 00:09:46;;;;;;;20.98;11.10;;;;;;;19.42;100.00;100013.63;5024754;28;20048;-72
2023/09/12 00:12:15;;;;;;;23.10;10.68;;;;;;;19.37;100.00;100002.44;5016729;28;20120;-73
2023/09/12 00:14:43;;;;;;;18.03;10.37;;;;;;;19.40;100.00;100002.16;5035369;28;20065;-72
2023/09/12 00:17:12;;;;;;;16.98;10.30;;;;;;;19.45;100.00;99999.94;5032274;28;20045;-71
2023/09/12 00:19:39;;;;;;;16.98;10.75;;;;;;;19.47;100.00;100000.66;5027216;28;20042;-71
2023/09/12 00:22:09;;;;;;;17.98;9.85;;;;;;;19.48;100.00;99996.13;5027625;28;20414;-71
2023/09/12 00:24:37;;;;;;;19.33;10.35;;;;;;;19.48;100.00;99988.06;5028607;28;20049;-71
2023/09/12 00:27:06;;;;;;;26.83;11.35;;;;;;;19.45;100.00;99988.34;5035037;28;21348;-73
2023/09/12 00:29:34;;;;;;;25.38;10.80;;;;;;;19.45;100.00;99993.72;5040701;28;20523;-72
2023/09/12 00:32:02;;;;;;;16.73;10.95;;;;;;;19.41;100.00;99981.53;5033302;28;20153;-72
2023/09/12 00:34:30;;;;;;;19.20;10.40;;;;;;;19.37;100.00;99983.66;5030832;28;20037;-72
2023/09/12 00:36:59;;;;;;;18.63;10.45;;;;;;;19.37;100.00;99988.16;5030116;28;20034;-72
2023/09/12 00:39:30;;;;;;;18.60;10.93;;;;;;;19.37;100.00;99997.06;5028690;28;20048;-72
2023/09/12 00:41:58;;;;;;;17.75;10.32;;;;;;;19.39;100.00;99983.50;5014367;28;20046;-72
2023/09/12 00:44:27;;;;;;;17.60;10.00;;;;;;;19.40;100.00;99982.53;5037330;28;20034;-71
2023/09/12 00:46:58;;;;;;;21.88;10.95;;;;;;;19.40;100.00;99982.53;5023476;28;20749;-72
2023/09/12 00:49:29;;;;;;;18.80;10.48;;;;;;;19.37;100.00;99980.13;5017975;28;20124;-72
2023/09/12 00:51:57;;;;;;;19.98;10.30;;;;;;;19.33;100.00;99973.34;5013705;28;20061;-72
2023/09/12 00:54:25;;;;;;;20.02;10.75;;;;;;;19.19;100.00;99951.28;5018711;28;20057;-72
2023/09/12 00:56:56;;;;;;;20.40;11.07;;;;;;;19.23;100.00;99966.09;5007547;28;20087;-72
2023/09/12 00:59:25;;;;;;;20.05;11.40;;;;;;;19.20;100.00;99966.38;5015999;28;20061;-71
2023/09/12 01:01:53;;;;;;;22.70;11.15;;;;;;;19.18;100.00;99962.16;5011202;28;20038;-72
2023/09/12 01:04:22;;;;;;;21.75;10.75;;;;;;;19.11;100.00;99959.16;5019445;28;20053;-71
2023/09/12 01:07:03;;;;;;;20.65;11.80;;;;;;;19.10;100.00;99960.13;5033946;28;20048;-71
2023/09/12 01:09:31;;;;;;;17.53;10.63;;;;;;;19.05;100.00;99961.50;5016333;28;20029;-72
2023/09/12 01:12:02;;;;;;;16.75;11.02;;;;;;;18.94;100.00;99951.75;4997196;28;20038;-70
2023/09/12 01:14:30;;;;;;;18.25;11.45;;;;;;;19.00;100.00;99967.31;5015382;28;20069;-72
2023/09/12 01:16:59;;;;;;;16.35;11.40;;;;;;;18.96;100.00;99968.56;5011126;28;20048;-72
2023/09/12 01:19:27;;;;;;;17.65;11.57;;;;;;;18.93;100.00;99974.19;5007317;28;20674;-72
2023/09/12 01:22:14;;;;;;;17.58;10.82;;;;;;;18.95;100.00;99977.59;5012747;28;20061;-72
2023/09/12 01:25:04;;;;;;;19.63;11.43;;;;;;;19.02;100.00;99972.53;5021037;28;20595;-71
2023/09/12 01:27:35;;;;;;;19.48;11.05;;;;;;;18.99;100.00;99965.63;5028834;28;20048;-71
2023/09/12 01:30:06;;;;;;;18.40;11.55;;;;;;;18.92;100.00;99970.66;5027662;28;20114;-73
2023/09/12 01:32:36;;;;;;;21.00;11.73;;;;;;;18.80;100.00;99958.34;5028686;28;20053;-71
2023/09/12 01:35:04;;;;;;;17.52;10.63;;;;;;;18.79;100.00;99959.31;5040890;28;20041;-72
2023/09/12 01:37:32;;;;;;;18.48;11.25;;;;;;;18.78;100.00;99956.75;5024815;28;20048;-71
2023/09/12 01:40:00;;;;;;;15.82;10.93;;;;;;;18.80;100.00;99952.97;5025986;28;20054;-72
2023/09/12 01:42:34;;;;;;;20.45;11.55;;;;;;;18.82;100.00;99947.47;5012765;28;20132;-71
2023/09/12 01:45:06;;;;;;;16.95;11.52;;;;;;;18.84;100.00;99943.69;5022741;28;20088;-73
2023/09/12 01:47:36;;;;;;;20.95;11.60;;;;;;;18.86;100.00;99946.22;5018202;28;20333;-71
2023/09/12 01:50:06;;;;;;;21.30;11.90;;;;;;;18.83;100.00;99946.50;5022641;28;20056;-71
2023/09/12 01:52:35;;;;;;;19.55;11.57;;;;;;;18.82;100.00;99942.09;5016243;28;20049;-71
2023/09/12 01:55:03;;;;;;;17.02;11.70;;;;;;;18.78;100.00;99948.72;5024464;28;20037;-70
2023/09/12 01:57:32;;;;;;;18.65;11.63;;;;;;;18.68;100.00;99946.00;5042037;28;20077;-72
2023/09/12 02:00:00;;;;;;;22.00;12.70;;;;;;;18.64;100.00;99955.28;5019212;28;20038;-71
2023/09/12 02:02:29;;;;;;;16.95;11.15;;;;;;;18.62;100.00;99945.69;5010276;28;20075;-70
2023/09/12 02:05:08;;;;;;;28.27;12.50;;;;;;;18.63;100.00;99942.03;5018991;28;20045;-71
2023/09/12 02:07:39;;;;;;;23.88;12.55;;;;;;;18.67;100.00;99936.25;5014923;28;20049;-72
2023/09/12 02:10:09;;;;;;;27.48;13.25;;;;;;;18.72;100.00;99951.97;5014254;28;20113;-71
2023/09/12 02:12:39;;;;;;;14.90;10.77;;;;;;;18.69;100.00;99952.22;5010145;28;20041;-71
2023/09/12 02:15:08;;;;;;;22.98;12.18;;;;;;;18.67;100.00;99956.88;5023147;28;20045;-71
2023/09/12 02:17:38;;;;;;;18.15;11.93;;;;;;;18.62;100.00;99961.78;5006632;28;20046;-71
2023/09/12 02:20:08;;;;;;;;;;;;;;;18.66;100.00;99969.44;5024378;28;20068;-70
2023/09/12 02:22:36;;;;;;;20.40;12.02;;;;;;;18.69;100.00;99962.94;5025525;28;19940;-71
2023/09/12 02:25:06;;;;;;;23.63;12.40;;;;;;;18.69;100.00;99973.69;5023800;28;20818;-72
2023/09/12 02:27:34;;;;;;;19.70;12.32;;;;;;;18.64;100.00;99974.06;5026389;28;20057;-72
2023/09/12 02:30:02;;;;;;;21.02;13.55;;;;;;;18.62;100.00;99967.13;5024237;28;20053;-71
2023/09/12 02:32:30;;;;;;;19.75;13.95;;;;;;;18.55;100.00;99967.66;5030536;28;20708;-71
2023/09/12 02:35:01;;;;;;;19.48;11.93;;;;;;;18.51;100.00;99971.56;5037614;28;20523;-71
2023/09/12 02:37:28;;;;;;;24.47;12.97;;;;;;;18.43;100.00;99970.53;5031220;28;20038;-71
2023/09/12 02:39:56;;;;;;;22.73;12.65;;;;;;;18.41;100.00;99967.16;5017928;28;20477;-71
2023/09/12 02:42:25;;;;;;;17.95;11.68;;;;;;;18.43;100.00;99973.22;4999494;28;20108;-71
2023/09/12 02:44:53;;;;;;;25.45;12.45;;;;;;;18.38;100.00;99976.31;5025383;28;20051;-71
2023/09/12 02:47:21;;;;;;;20.83;12.48;;;;;;;18.33;100.00;99965.13;5020983;28;20072;-72
2023/09/12 02:49:49;;;;;;;18.27;11.10;;;;;;;18.39;100.00;99971.78;5035550;28;20054;-71
2023/09/12 02:52:19;;;;;;;19.15;11.93;;;;;;;18.41;100.00;99964.47;5001946;28;20068;-71
2023/09/12 02:54:47;;;;;;;19.27;11.88;;;;;;;18.45;100.00;99960.53;5018466;28;20096;-71
2023/09/12 02:57:14;;;;;;;18.15;11.43;;;;;;;18.45;100.00;99949.78;5017797;28;20060;-71
2023/09/12 02:59:42;;;;;;;17.73;11.30;;;;;;;18.44;100.00;99958.81;5024773;28;20052;-71
2023/09/12 03:02:11;;;;;;;18.83;11.20;;;;;;;18.40;100.00;99950.22;5018252;28;20053;-72
2023/09/12 03:04:38;;;;;;;16.27;10.60;;;;;;;18.40;100.00;99949.38;5016970;28;20129;-70
2023/09/12 03:07:06;;;;;;;21.27;11.75;;;;;;;18.35;100.00;99932.81;5020160;28;20481;-72
2023/09/12 03:09:37;;;;;;;17.50;11.00;;;;;;;18.39;100.00;99943.16;5029819;28;20367;-73
2023/09/12 03:12:08;;;;;;;19.60;11.77;;;;;;;18.39;100.00;99943.16;5014802;28;20040;-72
2023/09/12 03:14:37;;;;;;;23.30;11.95;;;;;;;18.38;100.00;99956.69;5000484;28;20133;-71
2023/09/12 03:17:05;;;;;;;17.77;11.20;;;;;;;18.38;100.00;99957.53;5004539;28;20045;-71
2023/09/12 03:19:34;;;;;;;18.25;10.40;;;;;;;18.33;100.00;99951.72;5017666;28;20135;-71
2023/09/12 03:22:02;;;;;;;17.77;11.45;;;;;;;18.30;100.00;99943.94;5001667;28;20050;-71
2023/09/12 03:24:31;;;;;;;15.75;10.23;;;;;;;18.33;100.00;99950.88;4998498;28;20044;-72
2023/09/12 03:27:00;;;;;;;20.52;10.38;;;;;;;18.35;100.00;99944.38;5022592;28;20085;-71
2023/09/12 03:29:28;;;;;;;19.65;11.40;;;;;;;18.32;100.00;99931.25;5020726;28;20058;-71
2023/09/12 03:31:56;;;;;;;16.65;10.90;;;;;;;18.44;100.00;99943.59;5021332;28;20046;-71
2023/09/12 03:34:24;;;;;;;16.92;10.88;;;;;;;18.44;100.00;99937.38;5015429;28;20471;-72
2023/09/12 03:36:52;;;;;;;22.88;11.43;;;;;;;18.45;100.00;99939.91;5003944;28;20513;-72
2023/09/12 03:39:20;;;;;;;22.40;11.70;;;;;;;18.43;100.00;99923.13;5020212;28;20041;-72
2023/09/12 03:41:48;;;;;;;18.95;10.23;;;;;;;18.42;100.00;99916.06;5024115;28;20056;-72
2023/09/12 03:44:18;;;;;;;18.10;11.38;;;;;;;18.44;100.00;99921.28;5000096;28;20038;-71
2023/09/12 03:46:46;;;;;;;19.42;10.88;;;;;;;18.42;100.00;99920.56;5018636;28;20046;-72
2023/09/12 03:49:14;;;;;;;21.48;12.10;;;;;;;18.38;100.00;99920.00;5019199;28;20046;-72
2023/09/12 03:51:44;;;;;;;17.02;10.93;;;;;;;18.41;100.00;99919.75;5020149;28;20230;-72
2023/09/12 03:54:12;;;;;;;;;;;;;;;18.47;100.00;99924.56;4999149;28;20041;-72
2023/09/12 03:56:40;;;;;;;20.02;11.90;;;;;;;18.43;100.00;99915.06;5017306;28;19929;-72
2023/09/12 03:59:12;;;;;;;23.52;11.80;;;;;;;18.41;100.00;99926.94;5024921;28;20045;-72
2023/09/12 04:01:41;;;;;;;22.48;12.02;;;;;;;18.33;100.00;99918.69;5024400;28;20042;-72
2023/09/12 04:04:09;;;;;;;18.35;11.48;;;;;;;18.35;100.00;99928.31;5027787;28;20050;-71
2023/09/12 04:06:38;;;;;;;20.98;12.40;;;;;;;18.33;100.00;99932.09;5025353;28;20057;-72
2023/09/12 04:09:07;;;;;;;21.80;11.93;;;;;;;18.30;100.00;99935.88;5010230;28;20053;-72
2023/09/12 04:11:34;;;;;;;20.80;12.10;;;;;;;18.27;100.00;99919.22;5019301;28;20037;-72
2023/09/12 04:14:15;;;;;;;17.45;11.25;;;;;;;18.33;100.00;99932.94;5031381;28;20075;-72
2023/09/12 04:16:44;;;;;;;15.77;10.98;;;;;;;18.37;100.00;99947.78;5027697;28;20519;-72
2023/09/12 04:19:15;;;;;;;19.08;11.55;;;;;;;18.41;100.00;99945.72;5019392;28;20056;-74
2023/09/12 04:21:43;;;;;;;18.85;11.82;;;;;;;18.37;100.00;99945.13;5017029;28;20046;-72
2023/09/12 04:24:12;;;;;;;17.30;11.30;;;;;;;18.34;100.00;99925.75;5030311;28;20044;-72
2023/09/12 04:26:43;;;;;;;17.75;11.93;;;;;;;18.39;100.00;99926.22;5035323;28;20045;-71
2023/09/12 04:29:12;;;;;;;18.40;11.25;;;;;;;18.43;100.00;99931.16;5022310;28;20072;-72
2023/09/12 04:31:40;;;;;;;18.52;11.88;;;;;;;18.40;100.00;99934.13;5021117;28;20037;-72
2023/09/12 04:34:09;;;;;;;19.45;11.57;;;;;;;18.27;100.00;99940.66;5012975;28;20049;-72
2023/09/12 04:36:37;;;;;;;24.43;11.83;;;;;;;18.24;100.00;99947.16;5017859;28;20055;-72
2023/09/12 04:39:06;;;;;;;18.27;12.00;;;;;;;18.19;100.00;99952.91;5000052;28;20042;-72
2023/09/12 04:41:33;;;;;;;23.25;12.48;;;;;;;18.15;100.00;99959.50;5021526;28;20516;-72
2023/09/12 04:44:02;;;;;;;20.23;12.68;;;;;;;18.07;100.00;99963.81;5013234;28;20110;-73
2023/09/12 04:46:31;;;;;;;23.10;12.40;;;;;;;17.98;100.00;99956.53;5022569;28;20139;-72
2023/09/12 04:49:00;;;;;;;22.35;12.18;;;;;;;17.88;100.00;99960.00;5030261;28;20038;-72
2023/09/12 04:51:30;;;;;;;21.73;12.60;;;;;;;17.82;100.00;99957.84;5020440;28;20041;-71
2023/09/12 04:53:59;;;;;;;20.48;11.75;;;;;;;17.87;100.00;99954.78;5010302;28;20041;-72
2023/09/12 04:56:27;;;;;;;19.33;11.38;;;;;;;17.96;100.00;99955.81;5016109;28;20447;-71
2023/09/12 04:58:55;;;;;;;28.55;15.70;;;;;;;18.01;100.00;99961.66;5000030;28;20446;-71
2023/09/12 05:01:25;;;;;;;20.08;13.52;;;;;;;17.95;100.00;99973.72;5018991;28;20786;-71
2023/09/12 05:03:53;;;;;;;21.13;13.55;;;;;;;17.97;100.00;99976.28;5018256;28;20157;-73
2023/09/12 05:06:21;;;;;;;25.45;13.43;;;;;;;17.97;100.00;99961.06;5007820;28;20046;-72
2023/09/12 05:08:51;;;;;;;28.73;13.95;;;;;;;18.02;100.00;99949.97;5007756;28;20064;-71
2023/09/12 05:11:19;;;;;;;29.27;13.75;;;;;;;18.01;100.00;99948.25;5027032;28;20057;-72
2023/09/12 05:13:47;;;;;;;21.65;12.35;;;;;;;18.15;100.00;99950.59;5019019;28;20045;-72
2023/09/12 05:16:18;;;;;;;18.85;13.07;;;;;;;18.16;100.00;99947.81;5023719;28;20613;-71
2023/09/12 05:18:49;;;;;;;21.08;12.38;;;;;;;18.27;100.00;99952.22;5026596;28;20627;-71
2023/09/12 05:21:17;;;;;;;19.80;11.80;;;;;;;18.38;100.00;99954.84;5021760;28;20072;-71
2023/09/12 05:23:45;;;;;;;21.38;12.02;;;;;;;18.45;100.00;99945.28;5016788;28;20867;-71
2023/09/12 05:26:14;;;;;;;20.48;11.65;;;;;;;18.48;100.00;99955.75;5017534;28;20474;-71
2023/09/12 05:28:43;;;;;;;22.63;12.63;;;;;;;18.52;100.00;99945.63;5009863;28;20163;-71
2023/09/12 05:31:11;;;;;;;25.60;12.30;;;;;;;18.52;100.00;99943.78;5037196;28;20049;-71
2023/09/12 05:33:40;;;;;;;26.17;12.27;;;;;;;18.62;100.00;99945.69;5030430;28;20057;-71
2023/09/12 05:36:09;;;;;;;19.55;11.68;;;;;;;18.67;100.00;99938.94;5032745;28;20123;-71
2023/09/12 05:38:38;;;;;;;17.83;10.85;;;;;;;18.74;100.00;99948.13;5020358;28;20041;-70
2023/09/12 05:41:05;;;;;;;18.55;10.93;;;;;;;18.77;100.00;99950.56;5025298;28;20115;-71
2023/09/12 05:43:35;;;;;;;21.67;11.57;;;;;;;18.84;100.00;99945.50;5015494;28;21494;-71
2023/09/12 05:46:04;;;;;;;20.90;11.95;;;;;;;18.83;100.00;99950.03;5002702;28;20421;-70
2023/09/12 05:48:32;;;;;;;21.42;11.18;;;;;;;18.83;100.00;99946.50;5023833;28;20041;-71
2023/09/12 05:51:00;;;;;;;20.65;11.00;;;;;;;18.85;100.00;99950.75;5011265;28;20482;-71
2023/09/12 05:53:28;;;;;;;19.48;10.95;;;;;;;18.87;100.00;99955.97;5019838;28;20042;-71
2023/09/12 05:55:56;;;;;;;18.85;11.25;;;;;;;18.88;100.00;99955.00;4999476;28;20042;-71
2023/09/12 05:58:24;;;;;;;22.88;11.05;;;;;;;18.92;100.00;99959.06;5005893;28;20051;-71
2023/09/12 06:00:53;;;;;;;18.13;10.85;;;;;;;18.97;100.00;99966.72;5033833;28;20056;-71
2023/09/12 06:03:22;;;;;;;20.58;10.43;;;;;;;19.02;100.00;99954.63;5037537;28;20086;-72
2023/09/12 06:05:50;;;;;;;19.77;11.07;;;;;;;19.06;100.00;99955.16;5019423;28;20464;-72
2023/09/12 06:08:18;;;;;;;19.45;11.23;;;;;;;19.11;100.00;99958.28;5020585;28;20061;-71
2023/09/12 06:10:48;;;;;;;19.38;10.43;;;;;;;19.14;100.00;99950.84;5024260;28;20391;-70
2023/09/12 06:13:17;;;;;;;17.80;10.63;;;;;;;19.14;100.00;99947.28;5023257;28;20045;-71
2023/09/12 06:15:45;;;;;;;17.00;10.57;;;;;;;19.24;100.00;99962.44;5016397;28;20351;-70
2023/09/12 06:18:15;;;;;;;18.08;11.30;;;;;;;19.31;100.00;99970.78;5020839;28;20048;-70
2023/09/12 06:20:43;;;;;;;18.50;10.95;;;;;;;19.25;100.00;99958.75;5022714;28;20083;-71
2023/09/12 06:23:12;;;;;;;20.50;11.20;;;;;;;19.27;100.00;99954.09;5005366;28;20056;-71
2023/09/12 06:25:40;;;;;;;21.00;11.32;;;;;;;19.35;100.00;99968.69;5009360;28;20042;-71
2023/09/12 06:28:10;;;;;;;21.92;12.55;;;;;;;19.36;100.00;99971.22;5026452;28;20060;-71
2023/09/12 06:30:39;;;;;;;16.95;10.13;;;;;;;19.38;100.00;99966.56;5035587;28;20060;-71
2023/09/12 06:33:07;;;;;;;23.83;11.23;;;;;;;19.38;100.00;99963.00;5019621;28;20041;-71
2023/09/12 06:35:36;;;;;;;23.08;11.55;;;;;;;19.35;100.00;99960.63;5017228;28;20573;-71
2023/09/12 06:38:08;;;;;;;19.55;11.85;;;;;;;19.36;100.00;99956.97;5018110;28;20049;-73
2023/09/12 06:40:36;;;;;;;22.33;11.02;;;;;;;19.44;100.00;99959.78;5003806;28;20060;-71
2023/09/12 06:43:04;;;;;;;24.98;11.98;;;;;;;19.43;100.00;99955.41;5022205;28;20052;-71
2023/09/12 06:45:32;;;;;;;19.40;12.05;;;;;;;19.46;100.00;99972.09;5031434;28;20044;-71
2023/09/12 06:48:01;;;;;;;15.65;11.90;;;;;;;19.45;100.00;99966.84;5010365;28;20057;-71
2023/09/12 06:50:30;;;;;;;19.02;11.85;;;;;;;19.55;100.00;99967.75;5047752;28;20069;-71
2023/09/12 06:53:06;;;;;;;19.08;11.48;;;;;;;19.67;100.00;99965.81;5025613;28;20056;-71
2023/09/12 06:55:35;;;;;;;19.25;11.90;;;;;;;19.66;100.00;99964.94;5018607;28;20140;-71
2023/09/12 06:58:04;;;;;;;26.65;14.13;;;;;;;19.63;100.00;99965.22;5026594;28;20046;-71
2023/09/12 07:00:32;;;;;;;16.85;11.43;;;;;;;19.71;100.00;99973.41;5019474;28;20111;-72
2023/09/12 07:03:00;;;;;;;25.60;12.43;;;;;;;19.79;100.00;99978.09;5002929;28;20152;-71
2023/09/12 07:05:28;;;;;;;19.58;11.13;;;;;;;20.04;100.00;99982.03;4999457;28;20045;-70
2023/09/12 07:07:57;;;;;;;22.52;12.10;;;;;;;20.39;100.00;99985.00;5025848;28;20057;-71
2023/09/12 07:10:26;;;;;;;19.63;10.18;;;;;;;20.64;100.00;99978.13;5022016;28;20049;-71
2023/09/12 07:12:56;;;;;;;21.20;11.10;;;;;;;20.95;100.00;99982.28;5019426;28;20129;-71
2023/09/12 07:15:24;;;;;;;21.80;10.40;;;;;;;21.11;100.00;99984.31;5015560;28;20124;-71
2023/09/12 07:17:52;;;;;;;19.52;9.50;;;;;;;21.31;100.00;99985.97;5023029;28;20052;-70
2023/09/12 07:20:20;;;;;;;16.10;9.35;;;;;;;21.48;100.00;99969.97;5021637;28;20049;-73
2023/09/12 07:22:49;;;;;;;16.90;9.10;;;;;;;21.55;100.00;99957.63;5022447;28;20136;-72
2023/09/12 07:25:18;;;;;;;14.13;8.98;;;;;;;21.79;100.00;99971.31;5033633;28;20041;-72
2023/09/12 07:27:47;;;;;;;18.70;9.07;;;;;;;22.02;100.00;99964.50;5034151;28;20049;-72
2023/09/12 07:30:16;;;;;;;14.52;8.15;;;;;;;22.09;100.00;99961.16;5045881;28;20052;-72
2023/09/12 07:32:44;;;;;;;19.20;9.07;;;;;;;22.14;100.00;99964.25;5024157;28;20597;-72
2023/09/12 07:35:12;;;;;;;16.20;8.38;;;;;;;22.27;100.00;99970.91;5017434;28;20053;-72
2023/09/12 07:37:42;;;;;;;17.63;9.13;;;;;;;22.46;100.00;99972.56;5024102;28;20054;-71
2023/09/12 07:40:12;;;;;;;15.13;8.32;;;;;;;22.66;100.00;99971.38;5043022;28;20045;-71
2023/09/12 07:42:39;;;;;;;19.52;8.63;;;;;;;22.87;100.00;99967.44;5038620;28;20044;-71
2023/09/12 07:45:11;;;;;;;16.08;7.55;;;;;;;23.06;100.00;99962.66;5016313;28;20959;-71
2023/09/12 07:47:39;;;;;;;17.27;8.30;;;;;;;23.42;100.00;99965.13;5020304;28;20107;-71
2023/09/12 07:50:08;;;;;;;18.65;7.55;;;;;;;23.77;100.00;99961.31;5019857;28;20050;-71
2023/09/12 07:52:36;;;;;;;17.25;7.78;;;;;;;24.18;100.00;99964.91;5026444;28;20164;-71
2023/09/12 07:55:05;;;;;;;14.07;7.60;;;;;;;24.53;100.00;99969.16;5011277;28;21103;-72
2023/09/12 07:57:33;;;;;;;12.20;7.60;;;;;;;24.79;100.00;99975.16;5017674;28;20521;-71
2023/09/12 08:00:04;;;;;;;12.45;7.38;;;;;;;24.86;100.00;99971.78;5016799;28;20052;-72
2023/09/12 08:02:39;;;;;;;18.65;7.93;;;;;;;24.80;100.00;99968.72;5021321;28;20034;-72
2023/09/12 08:05:08;;;;;;;16.08;7.43;;;;;;;24.75;100.00;99972.97;5012471;28;20386;-71
2023/09/12 08:07:37;;;;;;;17.87;8.50;;;;;;;24.71;100.00;99967.06;5019546;28;20053;-72
2023/09/12 08:10:06;;;;;;;16.25;6.93;;;;;;;24.61;100.00;99982.66;5008294;28;20485;-72
2023/09/12 08:12:38;;;;;;;12.10;7.15;;;;;;;24.42;100.00;99983.00;5031389;28;20417;-72
2023/09/12 08:15:07;;;;;;;14.63;7.57;;;;;;;24.25;100.00;99989.44;5018443;28;20046;-72
2023/09/12 08:17:38;;;;;;;13.85;7.00;;;;;;;24.21;100.00;99975.41;5038874;28;20041;-72
2023/09/12 08:20:10;;;;;;;13.77;7.30;;;;;;;24.26;100.00;99972.19;5023241;28;20045;-71
2023/09/12 08:22:38;;;;;;;15.35;7.22;;;;;;;24.33;100.00;99973.22;5021043;28;20053;-71
2023/09/12 08:25:08;;;;;;;18.60;7.40;;;;;;;24.35;100.00;99971.19;5014411;28;20538;-72
2023/09/12 08:27:39;;;;;;;21.75;8.07;;;;;;;24.39;100.00;99967.97;5022261;28;20109;-72
2023/09/12 08:30:09;;;;;;;14.43;7.47;;;;;;;24.49;100.00;99970.50;5017564;28;20041;-72
2023/09/12 08:32:39;;;;;;;17.30;8.38;;;;;;;24.69;97.43;99974.53;5021639;28;20050;-71
2023/09/12 08:35:09;;;;;;;13.50;6.93;;;;;;;24.94;96.24;99966.34;5011985;28;20054;-72
2023/09/12 08:37:36;;;;;;;13.20;7.20;;;;;;;25.25;92.70;99975.38;5019659;28;20056;-71
2023/09/12 08:40:07;;;;;;;15.50;7.18;;;;;;;25.39;90.14;99985.47;5022008;28;20037;-71
2023/09/12 08:42:40;;;;;;;18.67;7.50;;;;;;;25.34;85.46;99973.47;5030295;28;20045;-71
2023/09/12 08:45:13;;;;;;;16.98;7.80;;;;;;;25.11;85.62;99984.22;5023876;28;20053;-72
2023/09/12 08:47:42;;;;;;;15.32;7.63;;;;;;;25.01;89.88;99976.31;5044104;28;20044;-72
2023/09/12 08:50:13;;;;;;;14.10;7.30;;;;;;;25.03;91.54;99989.66;5022114;28;20088;-72
2023/09/12 08:52:42;;;;;;;;;;;;;;;24.94;88.66;99980.75;5029987;28;20038;-71
2023/09/12 08:55:27;;;;;;;18.38;8.63;;;;;;;24.83;88.10;99984.66;5025692;28;19943;-71
2023/09/12 08:57:57;;;;;;;14.65;7.70;;;;;;;24.74;88.85;99976.69;5026613;28;20073;-71
2023/09/12 09:00:27;;;;;;;12.07;7.78;;;;;;;24.71;89.54;99983.28;5031780;28;20136;-70
2023/09/12 09:02:55;;;;;;;18.20;8.43;;;;;;;24.71;90.44;99972.47;5031750;28;20054;-71
2023/09/12 09:05:26;;;;;;;15.07;7.72;;;;;;;24.74;90.77;99977.53;5022315;28;20072;-70
2023/09/12 09:07:56;;;;;;;15.40;7.70;;;;;;;24.85;90.35;99978.22;5030455;28;20057;-71
2023/09/12 09:10:27;;;;;;;13.57;7.40;;;;;;;24.94;89.90;99977.19;5032375;28;20072;-71
2023/09/12 09:13:14;;;;;;;14.88;7.97;;;;;;;25.03;90.58;99976.13;5024267;28;20053;-71
2023/09/12 09:15:43;;;;;;;15.05;7.60;;;;;;;25.13;88.84;99974.06;5019615;28;20046;-70
2023/09/12 09:18:12;;;;;;;19.85;8.88;;;;;;;25.25;85.81;99980.78;5030225;28;20049;-71
2023/09/12 09:20:45;;;;;;;15.55;7.97;;;;;;;25.30;86.98;99977.56;5035902;28;20053;-71
2023/09/12 09:23:13;;;;;;;17.02;8.07;;;;;;;25.33;87.11;99971.78;5038351;28;20080;-72
2023/09/12 09:25:44;;;;;;;16.08;7.60;;;;;;;25.34;85.59;99958.03;5026566;28;20128;-72
2023/09/12 09:28:18;;;;;;;13.85;7.53;;;;;;;25.42;87.50;99968.84;5036599;28;20046;-72
2023/09/12 09:30:48;;;;;;;16.35;7.78;;;;;;;25.33;83.76;99936.56;5037012;28;20048;-72
2023/09/12 09:33:16;;;;;;;14.27;9.15;;;;;;;25.49;84.23;99966.28;5022044;28;20049;-72
2023/09/12 09:35:47;;;;;;;15.27;8.23;;;;;;;25.57;83.47;99959.94;5013729;28;20061;-71
2023/09/12 09:38:18;;;;;;;11.93;7.57;;;;;;;25.67;85.51;99964.13;5023701;28;20403;-72
2023/09/12 09:40:46;;;;;;;16.00;8.02;;;;;;;25.75;83.91;99950.53;5024714;28;20056;-72
2023/09/12 09:43:20;;;;;;;16.67;7.50;;;;;;;25.88;79.56;99951.78;5020975;28;20068;-72
2023/09/12 09:45:48;;;;;;;16.38;7.32;;;;;;;25.99;79.17;99957.63;5012893;28;20043;-72
2023/09/12 09:48:21;;;;;;;20.63;8.10;;;;;;;26.12;79.22;99957.88;5018377;28;20435;-74
2023/09/12 09:50:51;;;;;;;16.35;8.40;;;;;;;26.24;78.07;99957.44;5021192;28;20125;-71
2023/09/12 09:53:22;;;;;;;16.38;7.88;;;;;;;26.31;75.74;99958.41;5034942;28;20050;-72
2023/09/12 09:55:50;;;;;;;19.38;8.20;;;;;;;26.31;71.85;99956.53;5017420;28;20057;-72
2023/09/12 09:58:19;;;;;;;20.65;8.13;;;;;;;26.17;72.40;99966.31;5023565;28;20052;-72
2023/09/12 10:00:49;;;;;;;16.52;7.95;;;;;;;26.16;73.95;99963.78;5026656;28;20049;-72
2023/09/12 10:03:21;;;;;;;14.63;7.43;;;;;;;26.30;73.94;99959.44;5021186;28;20030;-72
2023/09/12 10:05:55;;;;;;;17.05;7.90;;;;;;;26.47;72.62;99963.69;5014284;28;20069;-72
2023/09/12 10:08:25;;;;;;;10.35;6.95;;;;;;;26.54;73.74;99956.50;5022508;28;20068;-72
2023/09/12 10:10:53;;;;;;;16.67;7.60;;;;;;;26.51;74.06;99956.88;5032757;28;20152;-72
2023/09/12 10:13:26;;;;;;;14.02;7.55;;;;;;;26.44;73.02;99947.78;5028524;28;20498;-71
2023/09/12 10:15:56;;;;;;;18.33;7.35;;;;;;;26.38;70.21;99940.38;5032035;28;20145;-71
2023/09/12 10:18:26;;;;;;;14.95;7.40;;;;;;;26.32;72.74;99933.78;5001328;28;20053;-72
2023/09/12 10:21:05;;;;;;;16.60;7.45;;;;;;;26.34;73.31;99939.03;5023545;28;20068;-71
2023/09/12 10:23:41;;;;;;;18.00;7.72;;;;;;;26.39;73.49;99933.91;5021067;28;20056;-71
2023/09/12 10:26:12;;;;;;;15.95;6.95;;;;;;;26.49;72.37;99932.59;5015450;28;20047;-71
2023/09/12 10:28:42;;;;;;;21.17;7.70;;;;;;;26.69;73.51;99934.78;5024026;28;20164;-72
2023/09/12 10:31:13;;;;;;;15.77;7.72;;;;;;;26.87;70.53;99930.66;5028268;28;20056;-72
2023/09/12 10:33:41;;;;;;;14.60;7.57;;;;;;;26.88;72.25;99932.34;5019065;28;20128;-72
2023/09/12 10:36:12;;;;;;;15.40;7.93;;;;;;;27.05;70.14;99915.88;4998926;28;20056;-72
2023/09/12 10:38:44;;;;;;;13.13;6.80;;;;;;;27.26;69.72;99918.63;5026278;28;20065;-71
2023/09/12 10:41:14;;;;;;;14.40;7.32;;;;;;;27.24;66.51;99912.53;5026541;28;20513;-73
2023/09/12 10:43:46;;;;;;;14.20;7.03;;;;;;;27.22;67.00;99915.47;5025458;28;20046;-71
2023/09/12 10:46:14;;;;;;;18.45;7.80;;;;;;;27.31;67.09;99916.19;5018375;28;20053;-72
2023/09/12 11:09:26;;;;;;;15.50;7.32;;;;;;;27.91;62.43;99907.63;4898905;29;20033;-82
2023/09/12 11:16:12;;;;;;;15.82;6.97;;;;;;;27.80;60.76;99910.88;4889275;29;20152;-80
2023/09/12 11:41:27;;;;;;;14.77;7.50;;;;;;;28.77;55.73;99902.84;4891757;29;20067;-82
2023/09/12 11:44:16;;;;;;;20.00;8.02;;;;;;;28.54;57.65;99902.28;4885390;29;20059;-81
2023/09/12 11:50:04;;;;;;;14.10;7.75;;;;;;;28.07;58.98;99900.22;4881596;29;20399;-80
2023/09/12 12:24:23;;;;;;;13.30;6.93;;;;;;;29.48;51.84;99861.63;6020185;22;4670719;-81
2023/09/12 12:33:09;;;;;;;14.30;7.57;;;;;;;29.30;53.69;99878.53;6120113;23;20096;-81
2023/09/12 12:36:03;;;;;;;14.20;6.82;;;;;;;29.14;55.80;99866.13;6146744;23;20030;-81
2023/09/12 12:38:39;;;;;;;13.95;7.60;;;;;;;29.36;54.83;99885.06;6148977;23;20018;-82
2023/09/12 12:41:50;;;;;;;13.70;7.88;;;;;;;29.37;54.20;99873.09;6106416;23;20086;-81
2023/09/12 12:44:45;;;;;;;12.95;7.35;;;;;;;29.51;54.43;99864.78;6133717;23;20018;-82
2023/09/12 12:50:09;;;;;;;11.50;7.68;;;;;;;29.67;52.57;99875.28;6158425;23;20018;-81
2023/09/12 13:11:28;;;;;;;14.68;7.70;;;;;;;30.21;48.02;99838.78;5635443;22;15043776;-81
2023/09/12 13:17:47;;;;;;;13.68;7.82;;;;;;;29.86;50.78;99826.41;6243587;23;20704;-81
2023/09/12 13:20:22;;;;;;;14.85;7.85;;;;;;;29.74;49.91;99818.00;6242589;23;20024;-78
2023/09/12 13:22:55;;;;;;;12.40;8.25;;;;;;;29.65;50.53;99802.88;6243607;23;20020;-79